Time;durP1;ratioP1;P1;durP2;ratioP2;P2;SDS_P1;SDS_P2;PMS_P1;PMS_P2;Temp;Humidity;BMP_temperature;BMP_pressure;BME280_temperature;BME280_humidity;BME280_pressure;Samples;Min_cycle;Max_cycle;Signal;HPM_P1;HPM_P2
2022/01/17 00:01:55;;;;;;;;;;;;;;;;;;;;;
2022/01/17 00:04:48;;;;;;;754.20;679.27;;;4.80;99.90;;;;;;5037073;28;20860;-83
2022/01/17 00:07:30;;;;;;;760.20;683.97;;;4.70;99.90;;;;;;5038488;28;20437;-82
2022/01/17 00:10:10;;;;;;;755.30;680.37;;;4.90;99.90;;;;;;5036807;28;20945;-82
2022/01/17 00:13:22;;;;;;;755.20;679.33;;;4.90;99.90;;;;;;5037459;28;20506;-83
2022/01/17 00:16:12;;;;;;;767.83;691.73;;;4.90;99.90;;;;;;5036227;28;20460;-83
2022/01/17 00:21:46;;;;;;;751.27;676.37;;;4.90;99.90;;;;;;5037957;28;20468;-82
2022/01/17 00:24:50;;;;;;;746.37;672.37;;;4.80;99.90;;;;;;5036221;28;20458;-84
2022/01/17 00:27:20;;;;;;;748.43;673.57;;;4.80;99.90;;;;;;5030477;28;20455;-82
2022/01/17 00:29:54;;;;;;;748.73;673.27;;;4.90;99.90;;;;;;5036938;28;20480;-82
2022/01/17 00:32:35;;;;;;;751.63;676.47;;;4.90;99.90;;;;;;5036815;28;20850;-84
2022/01/17 00:35:12;;;;;;;744.93;670.30;;;5.00;99.90;;;;;;5036609;28;20440;-82
2022/01/17 00:37:45;;;;;;;750.60;677.37;;;5.00;99.90;;;;;;5036661;28;20444;-82
2022/01/17 00:40:13;;;;;;;758.43;682.43;;;5.10;99.90;;;;;;5036801;28;20456;-83
2022/01/17 00:42:47;;;;;;;750.33;676.97;;;4.90;99.90;;;;;;5017352;28;21013;-82
2022/01/17 00:45:31;;;;;;;754.17;680.60;;;4.90;99.90;;;;;;5017841;28;20485;-86
2022/01/17 00:48:07;;;;;;;744.23;671.10;;;4.90;99.90;;;;;;5017275;28;20473;-83
2022/01/17 00:50:44;;;;;;;741.90;668.33;;;5.00;99.90;;;;;;5019055;28;20507;-84
2022/01/17 00:53:25;;;;;;;738.30;663.93;;;4.90;99.90;;;;;;5035981;28;20514;-82
2022/01/17 00:55:55;;;;;;;740.17;664.83;;;4.90;99.90;;;;;;5035771;28;21057;-82
2022/01/17 00:58:24;;;;;;;746.13;669.07;;;5.00;99.90;;;;;;5016070;28;20523;-82
2022/01/17 01:00:52;;;;;;;740.23;664.03;;;5.00;99.90;;;;;;5018614;28;20961;-83
2022/01/17 01:03:32;;;;;;;735.77;658.43;;;4.90;99.90;;;;;;5036403;28;20511;-82
2022/01/17 01:06:01;;;;;;;744.03;667.73;;;4.90;99.90;;;;;;5035636;28;20475;-82
2022/01/17 01:11:29;;;;;;;738.10;660.27;;;5.00;99.90;;;;;;5033832;28;20461;-83
2022/01/17 01:14:06;;;;;;;741.00;663.10;;;4.90;99.90;;;;;;5035036;28;20452;-83
2022/01/17 01:16:35;;;;;;;750.47;672.37;;;5.10;99.90;;;;;;5035499;28;20480;-82
2022/01/17 01:28:10;;;;;;;756.33;677.33;;;5.10;99.90;;;;;;5035248;28;20451;-83
2022/01/17 01:30:59;;;;;;;758.60;679.33;;;5.10;99.90;;;;;;5035498;28;20452;-82
2022/01/17 01:33:30;;;;;;;756.53;677.60;;;5.10;99.90;;;;;;5015519;28;20449;-83
2022/01/17 01:36:02;;;;;;;747.57;670.67;;;5.20;99.90;;;;;;5016561;28;20453;-82
2022/01/17 01:41:42;;;;;;;755.80;676.47;;;5.20;99.90;;;;;;5027251;28;20487;-82
2022/01/17 01:44:31;;;;;;;765.97;686.20;;;5.20;99.90;;;;;;5035162;28;20843;-84
2022/01/17 01:50:02;;;;;;;767.97;689.30;;;5.10;99.90;;;;;;5033987;28;20498;-83
2022/01/17 01:52:42;;;;;;;768.90;688.10;;;5.20;99.90;;;;;;5036019;28;20455;-82
2022/01/17 01:55:26;;;;;;;754.10;676.00;;;5.10;99.90;;;;;;5034922;28;20456;-82
2022/01/17 01:58:17;;;;;;;765.13;685.47;;;5.20;99.90;;;;;;5034011;28;20849;-83
2022/01/17 02:01:03;;;;;;;;;;;;;;;;;;;;;
2022/01/17 02:04:11;;;;;;;753.83;673.43;;;5.20;99.90;;;;;;5034103;28;20511;-85
2022/01/17 02:06:46;;;;;;;759.57;677.93;;;5.20;99.90;;;;;;5033137;28;20457;-83
2022/01/17 02:09:23;;;;;;;754.50;676.30;;;5.30;99.90;;;;;;5034325;28;20499;-82
2022/01/17 02:12:28;;;;;;;762.07;680.87;;;5.40;99.90;;;;;;5034006;28;20483;-83
2022/01/17 02:15:06;;;;;;;777.93;697.17;;;5.30;99.90;;;;;;5034099;28;20456;-82
2022/01/17 02:18:19;;;;;;;774.80;694.20;;;5.40;99.90;;;;;;5033430;28;20448;-83
2022/01/17 02:26:43;;;;;;;770.43;689.90;;;5.40;99.90;;;;;;5016199;28;21008;-82
2022/01/17 02:29:21;;;;;;;798.57;717.23;;;5.30;99.90;;;;;;5032949;28;21024;-82
2022/01/17 02:32:37;;;;;;;773.33;692.00;;;5.50;99.90;;;;;;5033494;28;20455;-82
2022/01/17 02:38:17;;;;;;;769.33;690.40;;;5.40;99.90;;;;;;5029235;28;20992;-82
2022/01/17 02:41:06;;;;;;;;;;;;;;;;;;;;;
2022/01/17 02:43:50;;;;;;;769.63;689.13;;;5.40;99.90;;;;;;5037065;28;20487;-82
2022/01/17 02:46:40;;;;;;;774.90;694.53;;;5.40;99.90;;;;;;5036591;28;20931;-82
2022/01/17 02:49:35;;;;;;;775.17;695.47;;;5.40;99.90;;;;;;5037467;28;20978;-82
2022/01/17 02:52:06;;;;;;;768.60;690.90;;;5.50;99.90;;;;;;5036010;28;20460;-83
2022/01/17 02:55:03;;;;;;;767.23;688.67;;;5.40;99.90;;;;;;5038044;28;20449;-83
2022/01/17 02:58:06;;;;;;;781.33;702.03;;;5.50;99.90;;;;;;5031986;28;20543;-82
2022/01/17 03:00:51;;;;;;;778.20;700.00;;;5.40;99.90;;;;;;5036187;28;20510;-82
2022/01/17 03:03:41;;;;;;;781.53;699.43;;;5.50;99.90;;;;;;5037067;28;20472;-82
2022/01/17 03:09:10;;;;;;;777.77;699.00;;;5.50;99.90;;;;;;4994343;28;20474;-82
2022/01/17 03:12:09;;;;;;;780.33;701.27;;;5.50;99.90;;;;;;5029832;28;20822;-83
2022/01/17 03:15:13;;;;;;;787.90;708.50;;;5.60;99.90;;;;;;5036750;28;20441;-82
2022/01/17 03:18:28;;;;;;;;;;;;;;;;;;;;;
2022/01/17 03:21:35;;;;;;;785.83;707.47;;;5.40;99.90;;;;;;5024802;28;20482;-82
2022/01/17 03:24:08;;;;;;;784.63;707.57;;;5.50;99.90;;;;;;5036574;28;20436;-83
2022/01/17 03:26:35;;;;;;;784.57;708.03;;;5.50;99.90;;;;;;5036803;28;20451;-82
2022/01/17 03:29:24;;;;;;;786.67;709.07;;;5.50;99.90;;;;;;5035670;28;20460;-83
2022/01/17 03:34:55;;;;;;;797.33;721.07;;;5.60;99.90;;;;;;5035990;28;20452;-82
2022/01/17 03:37:24;;;;;;;805.40;731.50;;;5.70;99.90;;;;;;5037731;28;20455;-82
2022/01/17 03:39:56;;;;;;;799.87;727.73;;;5.60;99.90;;;;;;5036834;28;21082;-82
2022/01/17 03:42:33;;;;;;;800.43;727.70;;;5.70;99.90;;;;;;5037546;28;20483;-82
2022/01/17 03:45:23;;;;;;;810.83;738.37;;;5.70;99.90;;;;;;5037131;28;20531;-82
2022/01/17 03:48:09;;;;;;;801.07;730.77;;;5.60;99.90;;;;;;5035242;28;20457;-84
2022/01/17 03:51:13;;;;;;;810.57;739.67;;;5.60;99.90;;;;;;5036364;28;20811;-82
2022/01/17 03:54:03;;;;;;;798.63;729.67;;;5.60;99.90;;;;;;5035352;28;20467;-80
2022/01/17 03:56:49;;;;;;;799.03;730.67;;;5.50;99.90;;;;;;5035421;28;20449;-82
2022/01/17 03:59:19;;;;;;;800.40;731.77;;;5.30;99.90;;;;;;5040241;28;20542;-82
2022/01/17 04:01:56;;;;;;;800.70;731.40;;;5.40;99.90;;;;;;5019688;28;20550;-85
2022/01/17 04:04:34;;;;;;;781.53;712.17;;;5.30;99.90;;;;;;5035273;28;20449;-83
2022/01/17 04:07:01;;;;;;;794.73;722.53;;;5.30;99.90;;;;;;5034195;28;20476;-82
2022/01/17 04:09:44;;;;;;;789.77;720.17;;;5.30;99.90;;;;;;5037108;28;21018;-83
2022/01/17 04:12:14;;;;;;;787.50;719.93;;;5.40;99.90;;;;;;5036423;28;20617;-83
2022/01/17 04:14:53;;;;;;;796.17;728.10;;;5.40;99.90;;;;;;5037299;28;20520;-82
2022/01/17 04:17:29;;;;;;;804.47;738.93;;;5.40;99.90;;;;;;5037175;28;20514;-83
2022/01/17 04:20:07;;;;;;;801.20;735.23;;;5.40;99.90;;;;;;5036313;28;20501;-82
2022/01/17 04:22:59;;;;;;;807.00;740.80;;;5.40;99.90;;;;;;5029748;28;20966;-83
2022/01/17 04:25:33;;;;;;;813.90;748.13;;;5.40;99.90;;;;;;5016034;28;20457;-82
2022/01/17 04:28:01;;;;;;;808.67;743.83;;;5.20;99.90;;;;;;5021923;28;20517;-82
2022/01/17 04:30:46;;;;;;;796.27;730.87;;;5.10;99.90;;;;;;5035944;28;21060;-82
2022/01/17 04:33:20;;;;;;;791.37;723.60;;;5.20;99.90;;;;;;5037030;28;20471;-82
2022/01/17 04:35:48;;;;;;;788.10;719.27;;;5.20;99.90;;;;;;5035672;28;20450;-82
2022/01/17 04:38:18;;;;;;;786.93;717.23;;;5.10;99.90;;;;;;5035251;28;20511;-85
2022/01/17 04:40:47;;;;;;;796.63;725.27;;;5.20;99.90;;;;;;5036185;28;20819;-82
2022/01/17 04:43:20;;;;;;;798.93;727.27;;;5.20;99.90;;;;;;5035184;28;20874;-81
2022/01/17 04:45:50;;;;;;;795.87;725.13;;;5.30;99.90;;;;;;5034796;28;20957;-82
2022/01/17 04:48:31;;;;;;;;;;;;;;;;;;;;;
2022/01/17 04:51:04;;;;;;;804.87;732.83;;;5.30;99.90;;;;;;5034966;28;20456;-81
2022/01/17 04:53:38;;;;;;;803.87;732.53;;;5.40;99.90;;;;;;5034743;28;20468;-82
2022/01/17 04:56:09;;;;;;;786.63;716.60;;;5.40;99.90;;;;;;5034538;28;20945;-82
2022/01/17 04:58:45;;;;;;;786.80;715.77;;;5.30;99.90;;;;;;5035101;28;20468;-82
2022/01/17 05:01:50;;;;;;;783.10;712.83;;;5.40;99.90;;;;;;5035398;28;20437;-82
2022/01/17 05:04:30;;;;;;;776.37;706.37;;;5.40;99.90;;;;;;5035335;28;21124;-82
2022/01/17 05:07:30;;;;;;;776.70;708.07;;;5.50;99.90;;;;;;5034399;28;20466;-81
2022/01/17 05:10:21;;;;;;;777.37;710.50;;;5.40;99.90;;;;;;5033861;28;20460;-82
2022/01/17 05:12:48;;;;;;;774.83;711.43;;;5.40;99.90;;;;;;5036218;28;20487;-83
2022/01/17 05:15:29;;;;;;;779.07;715.43;;;5.40;99.90;;;;;;5037354;28;20444;-82
2022/01/17 05:18:13;;;;;;;777.67;715.90;;;5.40;99.90;;;;;;5035679;28;20563;-84
2022/01/17 05:20:43;;;;;;;779.97;720.97;;;5.40;99.90;;;;;;5035996;28;20524;-82
2022/01/17 05:23:09;;;;;;;780.60;722.90;;;5.50;99.90;;;;;;5037100;28;20476;-82
2022/01/17 05:25:37;;;;;;;786.93;728.93;;;5.50;99.90;;;;;;5035077;28;20463;-82
2022/01/17 05:28:15;;;;;;;780.30;726.93;;;5.40;99.90;;;;;;5032742;28;20476;-83
2022/01/17 05:30:43;;;;;;;754.57;704.87;;;5.40;99.90;;;;;;5035209;28;20810;-82
2022/01/17 05:33:10;;;;;;;738.93;689.73;;;5.30;99.90;;;;;;5035697;28;20452;-82
2022/01/17 05:35:37;;;;;;;741.17;691.23;;;5.30;99.90;;;;;;5035061;28;20480;-82
2022/01/17 05:38:14;;;;;;;749.20;699.13;;;5.20;99.90;;;;;;5034796;28;20476;-82
2022/01/17 05:40:41;;;;;;;755.67;704.67;;;5.40;99.90;;;;;;5034543;28;21018;-82
2022/01/17 05:43:11;;;;;;;748.40;698.23;;;5.30;99.90;;;;;;5034730;28;20480;-83
2022/01/17 05:45:40;;;;;;;745.33;694.43;;;5.40;99.90;;;;;;5033306;28;20514;-82
2022/01/17 05:48:10;;;;;;;757.20;706.30;;;5.30;99.90;;;;;;5033136;28;20471;-81
2022/01/17 05:50:40;;;;;;;747.80;696.73;;;5.40;99.90;;;;;;5033795;28;20444;-82
2022/01/17 05:53:31;;;;;;;743.47;694.33;;;5.30;99.90;;;;;;5033946;28;20460;-82
2022/01/17 05:55:58;;;;;;;740.00;690.73;;;5.40;99.90;;;;;;5033767;28;20463;-82
2022/01/17 05:58:32;;;;;;;726.87;680.97;;;5.40;99.90;;;;;;5034328;28;21018;-84
2022/01/17 06:00:59;;;;;;;712.23;668.00;;;5.40;99.90;;;;;;5035497;28;20447;-81
2022/01/17 06:03:26;;;;;;;697.40;654.27;;;5.50;99.90;;;;;;5033060;28;21082;-82
2022/01/17 06:05:53;;;;;;;682.70;642.20;;;5.60;99.90;;;;;;5034121;28;21018;-81
2022/01/17 06:08:19;;;;;;;635.97;599.13;;;5.50;99.90;;;;;;5032715;28;20476;-82
2022/01/17 06:10:51;;;;;;;636.87;599.93;;;5.60;99.90;;;;;;5036259;28;20452;-82
2022/01/17 06:13:17;;;;;;;635.00;598.60;;;5.60;99.90;;;;;;5034407;28;20455;-82
2022/01/17 06:15:44;;;;;;;666.27;626.57;;;5.60;99.90;;;;;;5033452;28;20460;-82
2022/01/17 06:18:11;;;;;;;654.30;616.33;;;5.60;99.90;;;;;;5033164;28;20472;-82
2022/01/17 06:20:37;;;;;;;649.63;610.67;;;5.70;99.90;;;;;;5033033;28;20464;-82
2022/01/17 06:23:04;;;;;;;637.97;601.67;;;5.60;99.90;;;;;;5033967;28;20477;-83
2022/01/17 06:25:31;;;;;;;637.53;601.83;;;5.70;99.90;;;;;;5033118;28;20960;-82
2022/01/17 06:27:59;;;;;;;631.40;596.23;;;5.70;99.90;;;;;;5033691;28;20482;-80
2022/01/17 06:30:26;;;;;;;604.83;572.67;;;5.70;99.90;;;;;;5033237;28;20467;-81
2022/01/17 06:32:53;;;;;;;595.30;563.37;;;5.70;99.90;;;;;;5034087;28;20459;-81
2022/01/17 06:35:21;;;;;;;577.93;547.20;;;5.60;99.90;;;;;;5033436;28;20448;-81
2022/01/17 06:37:54;;;;;;;592.63;560.10;;;5.70;99.90;;;;;;5033747;28;20878;-83
2022/01/17 06:40:21;;;;;;;604.97;572.83;;;5.70;99.90;;;;;;5030132;28;20456;-81
2022/01/17 06:42:50;;;;;;;583.43;553.93;;;5.70;99.90;;;;;;5032610;28;20452;-81
2022/01/17 06:45:21;;;;;;;557.70;528.33;;;5.80;99.90;;;;;;5032487;28;20448;-82
2022/01/17 06:47:48;;;;;;;579.00;548.40;;;5.80;99.90;;;;;;5015252;28;20449;-81
2022/01/17 06:50:15;;;;;;;536.07;508.83;;;5.80;99.90;;;;;;5033065;28;20452;-82
2022/01/17 06:52:41;;;;;;;565.53;536.73;;;5.80;99.90;;;;;;5033046;28;20988;-81
2022/01/17 06:55:10;;;;;;;583.10;551.97;;;5.80;99.90;;;;;;5032758;28;20464;-82
2022/01/17 06:57:37;;;;;;;529.93;503.03;;;5.70;99.90;;;;;;5032661;28;20460;-82
2022/01/17 07:00:05;;;;;;;574.80;545.50;;;5.90;99.90;;;;;;5032183;28;21159;-81
2022/01/17 07:02:37;;;;;;;549.50;522.03;;;5.80;99.90;;;;;;5033035;28;20456;-81
2022/01/17 07:05:05;;;;;;;576.50;546.63;;;5.80;99.90;;;;;;5032496;28;20475;-81
2022/01/17 07:07:32;;;;;;;555.80;528.60;;;5.80;99.90;;;;;;5032169;28;20463;-84
2022/01/17 07:10:03;;;;;;;525.50;498.93;;;5.80;99.90;;;;;;5032164;28;20460;-80
2022/01/17 07:12:29;;;;;;;512.03;486.93;;;5.90;99.90;;;;;;5033248;28;20479;-82
2022/01/17 07:14:56;;;;;;;545.10;519.07;;;5.80;99.90;;;;;;5032741;28;20452;-82
2022/01/17 07:17:23;;;;;;;539.63;512.43;;;5.80;99.90;;;;;;5032620;28;20461;-82
2022/01/17 07:19:51;;;;;;;504.53;479.73;;;5.80;99.90;;;;;;5032264;28;20472;-83
2022/01/17 07:22:18;;;;;;;456.33;434.10;;;5.80;99.90;;;;;;5033201;28;20452;-83
2022/01/17 07:24:47;;;;;;;479.10;455.77;;;5.80;99.90;;;;;;5035907;28;20456;-82
2022/01/17 07:27:14;;;;;;;475.60;452.60;;;5.80;99.90;;;;;;5035512;28;20448;-85
2022/01/17 07:29:46;;;;;;;453.00;431.30;;;5.80;99.90;;;;;;5037757;28;20994;-83
2022/01/17 07:32:13;;;;;;;448.30;427.60;;;6.00;99.90;;;;;;5021268;28;20676;-81
2022/01/17 07:34:40;;;;;;;479.57;455.73;;;5.90;99.90;;;;;;5036641;28;20448;-81
2022/01/17 07:37:08;;;;;;;477.70;455.40;;;5.80;99.90;;;;;;5036550;28;20492;-81
2022/01/17 07:39:35;;;;;;;430.20;410.50;;;5.80;99.90;;;;;;5036552;28;20484;-81
2022/01/17 07:42:04;;;;;;;433.97;413.87;;;5.90;99.90;;;;;;5036590;28;20459;-80
2022/01/17 07:44:53;;;;;;;409.90;390.13;;;5.80;99.90;;;;;;5036166;28;20506;-81
2022/01/17 07:47:27;;;;;;;431.07;409.90;;;5.80;99.90;;;;;;5036759;28;21101;-81
2022/01/17 07:50:04;;;;;;;412.23;393.77;;;5.70;99.90;;;;;;5037490;28;20472;-82
2022/01/17 07:53:01;;;;;;;449.53;428.93;;;5.80;99.90;;;;;;5037908;28;20456;-81
2022/01/17 07:58:19;;;;;;;469.07;446.87;;;5.80;99.90;;;;;;5028038;28;20551;-82
2022/01/17 08:00:58;;;;;;;421.60;401.60;;;5.90;99.90;;;;;;5039672;28;20453;-83
2022/01/17 08:03:24;;;;;;;406.50;387.37;;;5.90;99.90;;;;;;5037407;28;20472;-81
2022/01/17 08:25:54;;;;;;;464.43;441.33;;;6.10;99.90;;;;;;5004564;28;20475;-82
2022/01/17 08:38:33;;;;;;;436.93;417.20;;;6.20;99.90;;;;;;4935265;29;21076;-81
2022/01/17 09:01:13;;;;;;;;;;;;;;;;;;;;;
2022/01/17 09:04:24;;;;;;;675.33;636.17;;;5.90;99.90;;;;;;4986374;28;21087;-81
2022/01/17 10:04:16;;;;;;;;;;;;;;;;;;;;;
2022/01/17 10:06:58;;;;;;;517.07;488.57;;;6.90;99.90;;;;;;4896861;29;20462;-82
2022/01/17 10:17:08;;;;;;;;;;;;;;;;;;;;;
2022/01/17 10:36:46;;;;;;;401.60;383.47;;;7.50;99.90;;;;;;4839531;29;20532;-81
2022/01/17 10:40:17;;;;;;;372.10;355.30;;;7.70;99.90;;;;;;4869837;29;20549;-84
2022/01/17 10:50:50;;;;;;;;;;;;;;;;;;;;;
2022/01/17 11:00:25;;;;;;;340.93;324.93;;;7.00;99.90;;;;;;5033516;28;20464;-81
2022/01/17 11:52:56;;;;;;;689.87;647.87;;;6.90;99.90;;;;;;4964421;28;20466;-83
2022/01/17 11:56:11;;;;;;;;;;;;;;;;;;;;;
2022/01/17 12:30:12;;;;;;;716.57;666.83;;;6.90;99.90;;;;;;4773788;29;20509;-82
2022/01/17 12:33:16;;;;;;;690.27;643.40;;;6.80;99.90;;;;;;4933841;29;20460;-81
2022/01/17 12:56:07;;;;;;;694.93;645.00;;;7.00;99.90;;;;;;4993412;28;20502;-82
2022/01/17 13:09:24;;;;;;;689.20;640.20;;;6.90;99.90;;;;;;4934338;28;20485;-80
2022/01/17 13:25:26;;;;;;;;;;;;;;;;;;;;;
2022/01/17 13:29:01;;;;;;;;;;;;;;;;;;;;;
2022/01/17 13:32:12;;;;;;;;;;;;;;;;;;;;;
2022/01/17 13:39:01;;;;;;;;;;;;;;;;;;;;;
2022/01/17 13:52:02;;;;;;;719.90;663.40;;;7.00;99.90;;;;;;4910549;28;20507;-82
2022/01/17 14:05:40;;;;;;;768.20;706.23;;;7.10;99.90;;;;;;4895360;29;20462;-82
2022/01/17 14:08:39;;;;;;;;;;;;;;;;;;;;;
2022/01/17 14:25:01;;;;;;;;;;;;;;;;;;;;;
2022/01/17 15:21:30;;;;;;;;;;;;;;;;;;;;;
2022/01/17 16:24:44;;;;;;;784.50;733.93;;;7.40;99.90;;;;;;4914165;29;20958;-81
2022/01/17 16:34:21;;;;;;;765.10;717.80;;;7.50;99.90;;;;;;4971997;28;20537;-81
2022/01/17 16:40:52;;;;;;;767.00;719.23;;;7.50;99.90;;;;;;4983481;28;20888;-80
2022/01/17 16:43:57;;;;;;;;;;;;;;;;;;;;;
2022/01/17 16:47:40;;;;;;;;;;;;;;;;;;;;;
2022/01/17 16:54:16;;;;;;;;;;;;;;;;;;;;;
2022/01/17 17:00:58;;;;;;;764.37;715.67;;;7.50;99.90;;;;;;5033517;28;20460;-82
2022/01/17 17:30:37;;;;;;;;;;;;;;;;;;;;;
2022/01/17 17:36:32;;;;;;;710.47;668.70;;;7.70;99.90;;;;;;4993078;28;20533;-81
2022/01/17 17:42:51;;;;;;;700.60;663.20;;;7.70;99.90;;;;;;4987734;28;21040;-82
2022/01/17 17:45:56;;;;;;;719.97;680.67;;;7.70;99.90;;;;;;4976415;28;20839;-81
2022/01/17 17:55:42;;;;;;;;;;;;;;;;;;;;;
2022/01/17 17:58:54;;;;;;;753.07;710.40;;;7.70;99.90;;;;;;4895121;29;20482;-81
2022/01/17 18:08:44;;;;;;;;;;;;;;;;;;;;;
2022/01/17 18:11:59;;;;;;;;;;;;;;;;;;;;;
2022/01/17 18:15:02;;;;;;;736.00;696.60;;;7.70;99.90;;;;;;5028279;28;20977;-81
2022/01/17 18:20:43;;;;;;;722.10;684.20;;;7.70;99.90;;;;;;4970712;28;20470;-80
2022/01/17 18:23:10;;;;;;;726.43;685.97;;;7.70;99.90;;;;;;5017655;28;20445;-80
2022/01/17 18:25:37;;;;;;;720.20;680.53;;;7.70;99.90;;;;;;5033838;28;20949;-81
2022/01/17 18:28:04;;;;;;;713.73;675.37;;;7.70;99.90;;;;;;5034818;28;20571;-81
2022/01/17 18:30:31;;;;;;;722.83;682.00;;;7.80;99.90;;;;;;5033924;28;20461;-81
2022/01/17 18:32:58;;;;;;;742.17;699.53;;;7.80;99.90;;;;;;5034118;28;20883;-82
2022/01/17 18:35:25;;;;;;;738.77;694.40;;;7.60;99.90;;;;;;5033571;28;20456;-81
2022/01/17 18:37:53;;;;;;;743.27;701.50;;;7.60;99.90;;;;;;5033883;28;20448;-80
2022/01/17 18:40:20;;;;;;;737.93;695.73;;;7.50;99.90;;;;;;5033957;28;20818;-80
2022/01/17 18:42:47;;;;;;;735.73;695.03;;;7.50;99.90;;;;;;5033548;28;20476;-81
2022/01/17 18:45:15;;;;;;;759.90;715.93;;;7.70;99.90;;;;;;5032170;28;20464;-81
2022/01/17 18:47:41;;;;;;;776.63;729.43;;;7.40;99.90;;;;;;5032611;28;20826;-81
2022/01/17 18:50:09;;;;;;;780.93;730.37;;;7.20;99.90;;;;;;5033348;28;20460;-81
2022/01/17 18:52:38;;;;;;;781.03;731.20;;;7.20;99.90;;;;;;5033044;28;20827;-81
2022/01/17 18:55:09;;;;;;;780.83;729.60;;;7.00;99.90;;;;;;5033540;28;20484;-81
2022/01/17 18:57:36;;;;;;;791.27;736.77;;;7.10;99.90;;;;;;5033408;28;20448;-80
2022/01/17 19:00:05;;;;;;;787.67;734.20;;;7.00;99.90;;;;;;5033113;28;20503;-80
2022/01/17 19:02:31;;;;;;;791.83;733.27;;;6.90;99.90;;;;;;5033592;28;20460;-80
2022/01/17 19:04:59;;;;;;;787.70;724.90;;;6.80;99.90;;;;;;5033112;28;20456;-80
2022/01/17 19:07:25;;;;;;;792.20;728.43;;;6.80;99.90;;;;;;5033729;28;20538;-81
2022/01/17 19:09:53;;;;;;;776.50;711.00;;;6.70;99.90;;;;;;5033125;28;20984;-82
2022/01/17 19:12:21;;;;;;;772.87;706.13;;;6.70;99.90;;;;;;5033765;28;20452;-80
2022/01/17 19:14:48;;;;;;;773.40;702.53;;;6.60;99.90;;;;;;5033536;28;20460;-79
2022/01/17 19:17:15;;;;;;;773.47;702.27;;;6.50;99.90;;;;;;5033230;28;20453;-81
2022/01/17 19:20:06;;;;;;;769.33;697.20;;;6.50;99.90;;;;;;5036105;28;20514;-79
2022/01/17 19:22:33;;;;;;;765.00;692.27;;;6.40;99.90;;;;;;5037687;28;20455;-82
2022/01/17 19:25:00;;;;;;;760.87;689.30;;;6.30;99.90;;;;;;5037173;28;20460;-81
2022/01/17 19:27:29;;;;;;;766.57;690.40;;;6.30;99.90;;;;;;5036864;28;20475;-80
2022/01/17 19:29:58;;;;;;;768.30;689.83;;;6.10;99.90;;;;;;5037187;28;20470;-81
2022/01/17 19:32:25;;;;;;;766.53;689.63;;;6.20;99.90;;;;;;5037387;28;20835;-80
2022/01/17 19:34:55;;;;;;;763.27;683.67;;;6.30;99.90;;;;;;5037065;28;20547;-80
2022/01/17 19:37:25;;;;;;;779.47;700.00;;;6.20;99.90;;;;;;5037355;28;20499;-79
2022/01/17 19:39:53;;;;;;;778.67;701.57;;;6.30;99.90;;;;;;5036907;28;20487;-81
2022/01/17 19:42:19;;;;;;;770.57;693.43;;;6.30;99.90;;;;;;5036244;28;20463;-82
2022/01/17 19:44:48;;;;;;;772.10;694.47;;;6.20;99.90;;;;;;5036739;28;20451;-82
2022/01/17 19:47:14;;;;;;;766.13;688.03;;;6.10;99.90;;;;;;5036896;28;20482;-81
2022/01/17 19:49:41;;;;;;;764.77;685.47;;;6.10;99.90;;;;;;5036360;28;20843;-81
2022/01/17 19:52:08;;;;;;;779.37;700.87;;;6.10;99.90;;;;;;5035849;28;20471;-80
2022/01/17 19:54:35;;;;;;;755.40;678.13;;;6.10;99.90;;;;;;5036802;28;20804;-82
2022/01/17 19:57:02;;;;;;;771.77;692.10;;;6.00;99.90;;;;;;5036236;28;20463;-79
2022/01/17 19:59:29;;;;;;;773.63;692.63;;;6.00;99.90;;;;;;5037185;28;20558;-80
2022/01/17 20:01:57;;;;;;;777.90;696.97;;;6.00;99.90;;;;;;5036800;28;20456;-81
2022/01/17 20:04:24;;;;;;;777.13;695.40;;;6.00;99.90;;;;;;5037312;28;20464;-81
2022/01/17 20:06:50;;;;;;;768.03;688.93;;;5.90;99.90;;;;;;5037693;28;20543;-80
2022/01/17 20:09:17;;;;;;;776.20;695.47;;;6.00;99.90;;;;;;5036846;28;20932;-81
2022/01/17 20:11:44;;;;;;;772.67;691.37;;;6.00;99.90;;;;;;5036868;28;20459;-81
2022/01/17 20:14:11;;;;;;;768.77;688.47;;;5.90;99.90;;;;;;5037043;28;20456;-80
2022/01/17 20:16:39;;;;;;;772.63;692.47;;;5.90;99.90;;;;;;5037462;28;20452;-81
2022/01/17 20:19:10;;;;;;;777.27;694.80;;;5.80;99.90;;;;;;5038085;28;20472;-81
2022/01/17 20:21:38;;;;;;;780.10;700.13;;;5.80;99.90;;;;;;5035605;28;20452;-82
2022/01/17 20:24:06;;;;;;;784.40;704.53;;;5.70;99.90;;;;;;5036459;28;20480;-81
2022/01/17 20:26:32;;;;;;;790.23;708.23;;;5.60;99.90;;;;;;5036875;28;20547;-80
2022/01/17 20:29:00;;;;;;;774.07;692.40;;;5.50;99.90;;;;;;5036711;28;20488;-81
2022/01/17 20:31:26;;;;;;;758.43;677.40;;;5.30;99.90;;;;;;5036025;28;20456;-81
2022/01/17 20:33:53;;;;;;;761.67;679.67;;;5.30;99.90;;;;;;5036880;28;20462;-81
2022/01/17 20:36:21;;;;;;;770.27;687.87;;;5.10;99.90;;;;;;5035946;28;20456;-81
2022/01/17 20:38:48;;;;;;;764.17;683.77;;;5.10;99.90;;;;;;5036245;28;20468;-81
2022/01/17 20:41:15;;;;;;;765.00;682.60;;;4.90;99.90;;;;;;5036398;28;20464;-83
2022/01/17 20:43:42;;;;;;;790.50;703.13;;;4.80;99.90;;;;;;5036662;28;20456;-82
2022/01/17 20:46:09;;;;;;;779.73;687.40;;;4.80;99.90;;;;;;5037149;28;20456;-80
2022/01/17 20:48:35;;;;;;;783.63;691.37;;;4.80;99.90;;;;;;5035923;28;20484;-80
2022/01/17 20:51:03;;;;;;;777.10;691.50;;;4.60;99.90;;;;;;5036939;28;20452;-83
2022/01/17 20:53:31;;;;;;;782.40;696.00;;;4.50;99.90;;;;;;5036685;28;20464;-80
2022/01/17 20:55:58;;;;;;;788.10;695.20;;;4.40;99.90;;;;;;5035963;28;20452;-80
2022/01/17 20:58:25;;;;;;;805.07;701.57;;;4.40;99.90;;;;;;5035470;28;20854;-81
2022/01/17 21:00:52;;;;;;;810.70;693.97;;;4.40;99.90;;;;;;5036158;28;20456;-80
2022/01/17 21:03:19;;;;;;;812.43;706.83;;;4.40;99.90;;;;;;5036140;28;21125;-82
2022/01/17 21:05:46;;;;;;;811.43;695.30;;;4.40;99.90;;;;;;5036560;28;20798;-81
2022/01/17 21:08:13;;;;;;;796.13;691.97;;;4.60;99.90;;;;;;5035166;28;20491;-81
2022/01/17 21:10:41;;;;;;;788.50;688.60;;;4.60;99.90;;;;;;5035153;28;20551;-82
2022/01/17 21:13:08;;;;;;;815.33;701.00;;;4.50;99.90;;;;;;5035449;28;20471;-83
2022/01/17 21:15:34;;;;;;;811.23;706.23;;;4.50;99.90;;;;;;5035006;28;20460;-81
2022/01/17 21:18:01;;;;;;;809.97;709.10;;;4.60;99.90;;;;;;5036237;28;20856;-81
2022/01/17 21:20:28;;;;;;;803.37;711.27;;;4.80;99.90;;;;;;5034801;28;20452;-81
2022/01/17 21:22:55;;;;;;;805.50;712.13;;;4.80;99.90;;;;;;5036483;28;20979;-80
2022/01/17 21:25:23;;;;;;;814.47;725.20;;;4.90;99.90;;;;;;5035148;28;20459;-79
2022/01/17 21:27:52;;;;;;;809.17;719.83;;;5.10;99.90;;;;;;5033901;28;20471;-81
2022/01/17 21:30:20;;;;;;;815.23;718.67;;;5.10;99.90;;;;;;5034063;28;20452;-81
2022/01/17 21:32:47;;;;;;;804.80;716.00;;;5.10;99.90;;;;;;5034597;28;20467;-82
2022/01/17 21:35:15;;;;;;;805.10;708.23;;;5.30;99.90;;;;;;5034830;28;20803;-80
2022/01/17 21:37:42;;;;;;;807.40;716.00;;;5.50;99.90;;;;;;5034231;28;20452;-80
2022/01/17 21:40:11;;;;;;;805.63;716.00;;;5.60;99.90;;;;;;5034226;28;20813;-81
2022/01/17 21:42:38;;;;;;;812.03;722.63;;;5.80;99.90;;;;;;5034910;28;20811;-81
2022/01/17 21:45:07;;;;;;;834.57;744.03;;;5.80;99.90;;;;;;5036615;28;20833;-81
2022/01/17 21:47:34;;;;;;;817.97;727.50;;;6.00;99.90;;;;;;5036103;28;20452;-80
2022/01/17 21:50:01;;;;;;;816.27;727.77;;;6.00;99.90;;;;;;5034717;28;20827;-80
2022/01/17 21:52:28;;;;;;;814.57;727.30;;;6.20;99.90;;;;;;5033820;28;20482;-82
2022/01/17 21:54:55;;;;;;;819.43;732.63;;;6.10;99.90;;;;;;5033816;28;20452;-80
2022/01/17 21:57:21;;;;;;;815.20;728.20;;;6.00;99.90;;;;;;5032911;28;20456;-81
2022/01/17 21:59:48;;;;;;;815.30;728.40;;;6.00;99.90;;;;;;5033135;28;20484;-80
2022/01/17 22:02:20;;;;;;;805.07;718.53;;;6.10;99.90;;;;;;5033457;28;20995;-81
2022/01/17 22:04:50;;;;;;;789.07;703.03;;;6.30;99.90;;;;;;5033523;28;20498;-81
2022/01/17 22:07:19;;;;;;;788.43;702.83;;;6.30;99.90;;;;;;5033601;28;20452;-80
2022/01/17 22:09:53;;;;;;;801.77;716.27;;;6.40;99.90;;;;;;5033215;28;20491;-80
2022/01/17 22:12:22;;;;;;;800.10;715.50;;;6.50;99.90;;;;;;5033166;28;20455;-80
2022/01/17 22:14:50;;;;;;;801.60;719.57;;;6.50;99.90;;;;;;5033519;28;20456;-80
2022/01/17 22:17:21;;;;;;;803.43;721.93;;;6.60;99.90;;;;;;5033127;28;20452;-81
2022/01/17 22:19:48;;;;;;;804.50;724.90;;;6.60;99.90;;;;;;5033320;28;20483;-80
2022/01/17 22:22:21;;;;;;;797.20;718.87;;;6.60;99.90;;;;;;5033838;28;20488;-81
2022/01/17 22:24:48;;;;;;;820.67;742.67;;;6.70;99.90;;;;;;5033694;28;20488;-81